Blackstone, Massachusetts
Current Conditions -  °F | °C
As of 3:55 AM on Sunday 26 Oct 2014 (Local Time) from KSFZ Reporting Station
Few Clouds Few Clouds  
Wind Chill: 52°   Ceiling: Unl
Heat Index: 52°   Visibility: 10mi
Dew Point: 37°   Wind: 3mph
Humidity: 58%   Direction: 240°WSW
Pressure: 29.47"   Gusts: NA
Location:  42.02°N, 71.54°W
Report Text: KSFZ 260755Z 24003KT 10SM FEW120 11/03 A2947 RMK AO1
Loading
Personal Weather Stations






























Interactive Weather Map
Tropical Storm Tracking
New forecast layout! Learn more

10-Day Weather Forecast

Advertisements
Track Severe Weather on mobile